Time;durP1;ratioP1;P1;durP2;ratioP2;P2;SDS_P1;SDS_P2;PMS_P1;PMS_P2;Temp;Humidity;BMP_temperature;BMP_pressure;BME280_temperature;BME280_humidity;BME280_pressure;Samples;Min_cycle;Max_cycle;Signal;HPM_P1;HPM_P2
2023/02/01 00:01:49;;;;;;;3.17;1.90;;;3.90;74.00;;;;;;4957296;28;20029;-74
2023/02/01 00:04:15;;;;;;;3.42;1.90;;;4.00;74.30;;;;;;4957244;28;20035;-74
2023/02/01 00:06:41;;;;;;;3.63;1.90;;;4.00;74.30;;;;;;4941410;28;20039;-75
2023/02/01 00:09:07;;;;;;;2.55;1.65;;;4.00;74.30;;;;;;4957344;28;20383;-74
2023/02/01 00:11:33;;;;;;;1.80;1.40;;;4.00;74.30;;;;;;4956879;28;20026;-75
2023/02/01 00:13:59;;;;;;;2.38;1.63;;;4.00;74.40;;;;;;4957462;28;20382;-75
2023/02/01 00:16:30;;;;;;;2.22;1.55;;;4.00;74.50;;;;;;4957046;28;20472;-74
2023/02/01 00:19:00;;;;;;;2.08;1.50;;;4.00;75.00;;;;;;4956853;28;20023;-75
2023/02/01 00:21:26;;;;;;;1.85;1.38;;;3.90;75.40;;;;;;4967869;28;20054;-75
2023/02/01 00:23:51;;;;;;;2.85;1.30;;;4.00;75.70;;;;;;4971501;28;20031;-74
2023/02/01 00:26:42;;;;;;;1.38;1.27;;;4.00;75.90;;;;;;4957504;28;20121;-76
2023/02/01 00:29:14;;;;;;;1.23;1.13;;;4.00;76.00;;;;;;4946893;28;20034;-74
2023/02/01 00:31:41;;;;;;;1.10;0.93;;;4.00;76.40;;;;;;4957018;28;20023;-75
2023/02/01 00:34:06;;;;;;;1.38;1.13;;;4.00;76.60;;;;;;4957103;28;20026;-74
2023/02/01 00:36:32;;;;;;;2.97;1.27;;;4.00;77.00;;;;;;4953843;29;20131;-75
2023/02/01 00:38:59;;;;;;;2.17;1.27;;;3.90;77.80;;;;;;4937949;29;20022;-75
2023/02/01 00:41:25;;;;;;;2.85;1.00;;;3.90;78.20;;;;;;4937541;29;20058;-75
2023/02/01 00:43:52;;;;;;;1.25;0.90;;;3.90;78.40;;;;;;4937553;29;20500;-75
2023/02/01 00:46:19;;;;;;;1.75;0.95;;;3.90;78.50;;;;;;4937546;29;20035;-75
2023/02/01 00:48:45;;;;;;;1.00;0.90;;;3.90;78.90;;;;;;4937820;29;20027;-75
2023/02/01 00:51:14;;;;;;;1.48;1.08;;;3.90;79.20;;;;;;4937289;29;20063;-75
2023/02/01 00:53:40;;;;;;;1.42;0.80;;;3.80;79.50;;;;;;4937718;29;20035;-75
2023/02/01 00:56:06;;;;;;;1.33;0.93;;;3.80;80.00;;;;;;4937076;29;20020;-75
2023/02/01 00:58:32;;;;;;;1.35;1.13;;;3.90;80.40;;;;;;4937441;29;20488;-74
2023/02/01 01:01:02;;;;;;;1.17;0.98;;;3.80;81.50;;;;;;4937331;29;20020;-75
2023/02/01 01:03:29;;;;;;;1.92;1.20;;;3.90;81.10;;;;;;4937609;29;20365;-75
2023/02/01 01:05:58;;;;;;;1.15;1.00;;;3.80;81.20;;;;;;4937547;29;20036;-75
2023/02/01 01:08:23;;;;;;;1.23;1.13;;;3.80;81.30;;;;;;4937435;29;20539;-75
2023/02/01 01:10:49;;;;;;;1.40;1.20;;;3.90;81.00;;;;;;4955135;28;20136;-75
2023/02/01 01:13:15;;;;;;;1.98;1.33;;;3.90;80.90;;;;;;4941082;29;20469;-75
2023/02/01 01:15:41;;;;;;;1.20;1.00;;;3.90;80.90;;;;;;4941231;29;20117;-74
2023/02/01 01:18:08;;;;;;;2.78;1.20;;;3.90;81.20;;;;;;4941067;29;20076;-74
2023/02/01 01:20:39;;;;;;;1.92;1.02;;;3.80;81.20;;;;;;4941003;29;20476;-74
2023/02/01 01:23:07;;;;;;;2.35;1.30;;;3.80;81.40;;;;;;4940575;29;20027;-74
2023/02/01 01:25:37;;;;;;;2.25;1.20;;;3.80;81.40;;;;;;4940614;29;20031;-74
2023/02/01 01:28:03;;;;;;;2.38;1.30;;;3.80;81.30;;;;;;4940372;29;20082;-74
2023/02/01 01:30:29;;;;;;;2.53;1.27;;;3.80;81.40;;;;;;4940929;29;20028;-75
2023/02/01 01:32:54;;;;;;;1.80;1.23;;;3.90;81.40;;;;;;4940567;29;20472;-74
2023/02/01 01:35:20;;;;;;;2.08;1.70;;;3.80;81.40;;;;;;4940728;29;20019;-77
2023/02/01 01:37:45;;;;;;;2.47;1.38;;;3.80;81.40;;;;;;4956404;28;20142;-77
2023/02/01 01:40:11;;;;;;;2.08;1.40;;;3.90;81.10;;;;;;4957669;29;20126;-77
2023/02/01 01:42:39;;;;;;;3.70;1.15;;;3.90;81.10;;;;;;4941977;29;20030;-77
2023/02/01 01:45:19;;;;;;;2.30;1.13;;;3.90;80.80;;;;;;4943257;29;20023;-77
2023/02/01 01:47:50;;;;;;;3.30;1.50;;;3.90;80.60;;;;;;4942302;29;20437;-75
2023/02/01 01:50:20;;;;;;;1.92;1.17;;;3.80;80.80;;;;;;4944546;29;20030;-75
2023/02/01 01:52:50;;;;;;;1.55;1.30;;;3.90;80.50;;;;;;4941416;29;20038;-75
2023/02/01 01:55:19;;;;;;;1.60;1.20;;;3.90;80.30;;;;;;4940527;29;20544;-75
2023/02/01 01:57:49;;;;;;;1.98;1.52;;;3.90;79.80;;;;;;4940528;29;20391;-75
2023/02/01 02:00:19;;;;;;;2.20;1.42;;;3.90;79.00;;;;;;4940368;29;20027;-75
2023/02/01 02:02:50;;;;;;;1.45;1.20;;;4.00;78.80;;;;;;4940412;29;20028;-75
2023/02/01 02:05:17;;;;;;;1.25;1.02;;;4.00;78.40;;;;;;4940006;29;20034;-75
2023/02/01 02:07:46;;;;;;;2.70;0.85;;;4.00;78.10;;;;;;4940112;29;20031;-75
2023/02/01 02:10:13;;;;;;;1.25;0.90;;;4.00;78.00;;;;;;4940132;29;20023;-75
2023/02/01 02:12:42;;;;;;;1.60;1.00;;;4.10;77.60;;;;;;4940030;29;20042;-75
2023/02/01 02:15:10;;;;;;;2.10;1.13;;;4.00;77.70;;;;;;4940060;29;20074;-75
2023/02/01 02:17:55;;;;;;;3.58;1.13;;;4.10;77.40;;;;;;4939932;29;20491;-75
2023/02/01 02:20:39;;;;;;;1.05;0.95;;;4.10;77.50;;;;;;4956013;29;20102;-75
2023/02/01 02:23:38;;;;;;;1.27;0.98;;;4.10;77.50;;;;;;4958030;28;20031;-75
2023/02/01 02:26:22;;;;;;;2.05;0.95;;;4.10;77.20;;;;;;4958817;28;20039;-74
2023/02/01 02:29:10;;;;;;;0.85;0.70;;;4.20;77.10;;;;;;4958796;28;20495;-75
2023/02/01 02:31:57;;;;;;;4.05;1.20;;;4.20;77.50;;;;;;4962526;28;20026;-74
2023/02/01 02:34:34;;;;;;;1.13;1.02;;;4.10;78.00;;;;;;4977644;28;20023;-74
2023/02/01 02:37:28;;;;;;;1.35;1.10;;;4.20;78.00;;;;;;4962610;28;20051;-74
2023/02/01 02:40:06;;;;;;;1.77;1.17;;;4.10;78.30;;;;;;4959080;28;20034;-76
2023/02/01 02:49:01;;;;;;;1.85;1.15;;;4.10;79.60;;;;;;4976006;28;20077;-74
2023/02/01 02:54:46;;;;;;;1.98;1.10;;;4.00;79.80;;;;;;4975981;28;20042;-74
2023/02/01 03:05:40;;;;;;;1.23;1.10;;;4.00;80.90;;;;;;4975791;28;20042;-75
2023/02/01 03:08:19;;;;;;;1.33;1.20;;;4.00;80.60;;;;;;4958043;28;20038;-75
2023/02/01 03:11:00;;;;;;;1.55;1.10;;;4.10;80.90;;;;;;4957743;28;20027;-76
2023/02/01 03:14:06;;;;;;;2.42;1.50;;;4.00;80.80;;;;;;4958079;28;20480;-75
2023/02/01 03:16:51;;;;;;;1.87;1.00;;;4.00;80.50;;;;;;4957954;28;20155;-74
2023/02/01 03:19:37;;;;;;;2.47;1.13;;;4.00;80.10;;;;;;4957959;28;20275;-74
2023/02/01 03:22:12;;;;;;;2.40;1.30;;;4.00;80.30;;;;;;4957963;28;20037;-75
2023/02/01 03:24:45;;;;;;;1.67;1.33;;;4.00;80.50;;;;;;4957662;28;20063;-74
2023/02/01 03:27:20;;;;;;;3.10;1.23;;;4.00;80.40;;;;;;4957816;28;20403;-74
2023/02/01 03:29:56;;;;;;;2.95;1.30;;;4.00;80.20;;;;;;4957913;28;20023;-74
2023/02/01 03:32:22;;;;;;;1.10;0.98;;;4.10;80.00;;;;;;4957677;28;20030;-74
2023/02/01 03:34:49;;;;;;;1.55;1.02;;;4.10;79.60;;;;;;4957264;28;20031;-74
2023/02/01 03:37:23;;;;;;;1.63;0.98;;;4.10;78.90;;;;;;4957297;28;20079;-74
2023/02/01 03:39:57;;;;;;;1.42;0.85;;;4.10;79.00;;;;;;4957680;28;20476;-74
2023/02/01 03:42:30;;;;;;;1.10;0.87;;;4.10;78.80;;;;;;4957985;28;20472;-75
2023/02/01 03:45:05;;;;;;;1.75;1.15;;;4.10;78.70;;;;;;4958932;28;20130;-75
2023/02/01 03:47:36;;;;;;;1.77;0.82;;;4.20;78.40;;;;;;4957327;28;20046;-75
2023/02/01 03:50:06;;;;;;;2.60;1.02;;;4.10;78.40;;;;;;4957547;28;20031;-74
2023/02/01 03:52:45;;;;;;;1.17;1.08;;;4.20;78.40;;;;;;4957482;28;20059;-77
2023/02/01 03:55:14;;;;;;;1.58;1.00;;;4.20;78.10;;;;;;4957166;28;20023;-78
2023/02/01 03:57:45;;;;;;;1.15;0.82;;;4.20;78.00;;;;;;4957309;28;20022;-79
2023/02/01 04:00:24;;;;;;;1.52;0.95;;;4.20;77.70;;;;;;4957275;28;20019;-78
2023/02/01 04:02:50;;;;;;;4.10;1.25;;;4.20;77.60;;;;;;4957424;28;20117;-79
2023/02/01 04:05:16;;;;;;;1.48;0.80;;;4.20;77.60;;;;;;4957172;28;20085;-78
2023/02/01 04:07:42;;;;;;;1.67;1.15;;;4.20;77.40;;;;;;4957405;28;20062;-78
2023/02/01 04:10:09;;;;;;;1.13;0.90;;;4.20;78.60;;;;;;4957203;28;20027;-75
2023/02/01 04:12:35;;;;;;;1.10;1.00;;;4.10;78.10;;;;;;4956856;28;20027;-75
2023/02/01 04:15:01;;;;;;;1.02;0.80;;;4.10;78.40;;;;;;4957270;28;20023;-78
2023/02/01 04:17:26;;;;;;;1.90;1.10;;;4.10;78.90;;;;;;4956970;28;20049;-78
2023/02/01 04:19:52;;;;;;;1.13;1.02;;;4.10;79.00;;;;;;4957159;28;20030;-78
2023/02/01 04:22:19;;;;;;;1.75;1.17;;;4.10;79.40;;;;;;4956920;28;20499;-77
2023/02/01 04:24:44;;;;;;;1.65;1.05;;;4.10;79.80;;;;;;4956738;28;20030;-77
2023/02/01 04:27:10;;;;;;;1.85;0.90;;;4.10;79.90;;;;;;4956715;28;20480;-77
2023/02/01 04:29:35;;;;;;;2.22;1.15;;;4.00;80.40;;;;;;4956862;28;20047;-75
2023/02/01 04:32:01;;;;;;;1.23;1.08;;;4.00;80.60;;;;;;4956796;28;20031;-77
2023/02/01 04:34:27;;;;;;;1.35;1.20;;;4.10;80.90;;;;;;4941096;28;20031;-77
2023/02/01 04:36:52;;;;;;;3.25;1.10;;;4.00;81.30;;;;;;4956684;28;20061;-77
2023/02/01 04:39:18;;;;;;;1.20;1.10;;;4.00;81.80;;;;;;4956726;28;20101;-76
2023/02/01 04:41:43;;;;;;;2.95;1.58;;;3.90;82.40;;;;;;4955981;28;20039;-77
2023/02/01 04:44:18;;;;;;;3.00;1.23;;;3.80;82.40;;;;;;4956815;28;20023;-77
2023/02/01 04:46:45;;;;;;;9.13;4.25;;;3.80;82.90;;;;;;4975642;28;20476;-76
2023/02/01 04:49:13;;;;;;;3.00;1.30;;;3.80;83.20;;;;;;4960243;28;20434;-77
2023/02/01 04:51:39;;;;;;;2.80;1.50;;;3.70;82.20;;;;;;4960413;28;20118;-77
2023/02/01 04:54:07;;;;;;;1.85;1.20;;;3.80;82.70;;;;;;4960266;28;20038;-77
2023/02/01 04:56:34;;;;;;;1.40;0.93;;;3.70;82.00;;;;;;4960334;28;20023;-77
2023/02/01 04:59:02;;;;;;;1.35;1.10;;;3.70;81.70;;;;;;4960190;28;20501;-77
2023/02/01 05:01:27;;;;;;;1.60;1.10;;;3.80;81.00;;;;;;4960275;28;20037;-77
2023/02/01 05:03:53;;;;;;;2.08;1.40;;;3.80;80.60;;;;;;4960233;28;20387;-77
2023/02/01 05:06:18;;;;;;;1.83;1.30;;;3.90;80.10;;;;;;4960052;28;20089;-73
2023/02/01 05:08:44;;;;;;;5.00;1.98;;;4.00;80.10;;;;;;4959929;28;20031;-77
2023/02/01 05:13:47;;;;;;;1.88;1.23;;;4.00;79.00;;;;;;4960020;28;20054;-80
2023/02/01 05:13:55;;;;;;;3.35;1.63;;;3.90;78.70;;;;;;4977470;28;20081;-78
2023/02/01 05:16:21;;;;;;;3.00;1.38;;;4.00;78.80;;;;;;4960154;28;20676;-78
2023/02/01 05:18:46;;;;;;;1.42;1.10;;;4.10;78.50;;;;;;4960040;28;20027;-74
2023/02/01 05:21:12;;;;;;;1.23;1.00;;;4.10;78.20;;;;;;4959866;28;20023;-74
2023/02/01 05:24:09;;;;;;;1.92;1.20;;;4.00;78.20;;;;;;4960030;28;20081;-75
2023/02/01 05:26:24;;;;;;;1.23;0.90;;;4.10;77.60;;;;;;4976657;28;20034;-76
2023/02/01 05:28:49;;;;;;;1.63;0.90;;;4.10;75.80;;;;;;4959703;28;20031;-75
2023/02/01 05:31:15;;;;;;;1.55;1.20;;;4.10;75.80;;;;;;4959690;28;20490;-75
2023/02/01 05:33:41;;;;;;;1.38;1.20;;;4.10;75.90;;;;;;4961749;28;20057;-75
2023/02/01 05:36:07;;;;;;;1.20;0.88;;;4.20;75.60;;;;;;4978667;28;20038;-75
2023/02/01 05:38:32;;;;;;;4.03;1.35;;;4.20;75.20;;;;;;4979272;28;20066;-75
2023/02/01 05:40:58;;;;;;;7.07;3.53;;;4.20;75.30;;;;;;4978916;28;20057;-74
2023/02/01 05:43:24;;;;;;;1.02;0.88;;;4.20;75.10;;;;;;4978967;28;20036;-74
2023/02/01 05:45:52;;;;;;;4.90;1.20;;;4.20;74.70;;;;;;4996079;28;20041;-75
2023/02/01 05:48:18;;;;;;;1.52;1.10;;;4.30;74.70;;;;;;4978734;28;20126;-76
2023/02/01 05:50:44;;;;;;;3.35;0.93;;;4.30;74.70;;;;;;4962844;28;20113;-76
2023/02/01 05:53:09;;;;;;;2.38;1.40;;;4.30;74.50;;;;;;4962820;28;20394;-75
2023/02/01 05:55:37;;;;;;;1.75;0.88;;;4.30;74.50;;;;;;4978647;28;20030;-75
2023/02/01 05:58:04;;;;;;;1.38;1.02;;;4.30;74.20;;;;;;4977586;28;20121;-75
2023/02/01 06:00:30;;;;;;;2.88;1.02;;;4.30;74.50;;;;;;4978515;28;20112;-76
2023/02/01 06:02:55;;;;;;;2.63;0.80;;;4.20;74.60;;;;;;4978804;28;20483;-75
2023/02/01 06:05:21;;;;;;;1.48;0.95;;;4.10;74.80;;;;;;4979085;28;20026;-74
2023/02/01 06:07:46;;;;;;;1.83;0.80;;;4.20;74.80;;;;;;4978677;28;20042;-75
2023/02/01 06:10:13;;;;;;;10.13;2.85;;;4.20;74.70;;;;;;4978683;28;20383;-74
2023/02/01 06:12:38;;;;;;;2.17;1.00;;;4.20;75.30;;;;;;4978552;28;20027;-72
2023/02/01 06:15:05;;;;;;;2.35;1.13;;;4.70;79.00;;;;;;4978185;28;20029;-72
2023/02/01 06:17:30;;;;;;;1.15;1.00;;;5.00;73.80;;;;;;4981988;28;20094;-73
2023/02/01 06:19:56;;;;;;;1.20;0.77;;;5.20;70.40;;;;;;4995925;28;20049;-72
2023/02/01 06:22:22;;;;;;;1.20;0.90;;;5.00;69.30;;;;;;4978612;28;20037;-75
2023/02/01 06:24:48;;;;;;;1.45;0.90;;;4.90;69.80;;;;;;4978136;28;20023;-75
2023/02/01 06:27:14;;;;;;;2.38;1.10;;;4.80;69.90;;;;;;4977734;28;20104;-76
2023/02/01 06:29:40;;;;;;;2.55;1.35;;;4.80;70.10;;;;;;4977570;28;20026;-75
2023/02/01 06:32:06;;;;;;;1.50;1.00;;;4.60;70.00;;;;;;4977261;28;20076;-74
2023/02/01 06:34:32;;;;;;;1.42;0.93;;;4.70;70.30;;;;;;4977905;28;20018;-76
2023/02/01 06:36:58;;;;;;;1.35;1.20;;;4.70;72.00;;;;;;4977680;28;20192;-75
2023/02/01 06:39:23;;;;;;;5.88;1.00;;;4.60;73.30;;;;;;4977831;28;20030;-77
2023/02/01 06:41:50;;;;;;;4.80;1.30;;;4.40;75.30;;;;;;4977649;28;20022;-74
2023/02/01 06:44:16;;;;;;;6.22;1.33;;;4.40;76.80;;;;;;4977716;28;20041;-76
2023/02/01 06:46:42;;;;;;;2.97;1.63;;;4.30;78.90;;;;;;4977349;28;20502;-75
2023/02/01 06:49:08;;;;;;;3.20;2.20;;;4.10;79.10;;;;;;4977636;28;20164;-74
2023/02/01 06:51:34;;;;;;;3.70;1.60;;;4.00;80.10;;;;;;4977649;28;20066;-77
2023/02/01 06:54:00;;;;;;;2.25;1.38;;;4.00;80.50;;;;;;4961222;28;20050;-76
2023/02/01 06:56:27;;;;;;;2.53;1.02;;;4.00;81.00;;;;;;4977377;28;20073;-77
2023/02/01 06:58:52;;;;;;;1.65;1.13;;;3.90;81.70;;;;;;4977344;28;20025;-78
2023/02/01 07:01:19;;;;;;;2.10;1.38;;;3.90;81.70;;;;;;4977329;28;20022;-76
2023/02/01 07:03:51;;;;;;;1.42;1.30;;;3.90;82.20;;;;;;4976760;28;20467;-76
2023/02/01 07:06:17;;;;;;;3.70;1.85;;;3.80;81.50;;;;;;4977378;28;20042;-74
2023/02/01 07:08:44;;;;;;;6.20;2.22;;;3.90;81.90;;;;;;4976980;28;20467;-75
2023/02/01 07:11:12;;;;;;;3.58;1.90;;;3.90;82.00;;;;;;4976918;28;20459;-75
2023/02/01 07:13:38;;;;;;;3.33;1.80;;;3.90;82.00;;;;;;4976988;28;20030;-74
2023/02/01 07:16:06;;;;;;;4.20;1.58;;;3.90;81.50;;;;;;4977009;28;20027;-75
2023/02/01 07:18:32;;;;;;;2.42;1.50;;;3.80;82.10;;;;;;4977031;28;20451;-74
2023/02/01 07:20:58;;;;;;;1.83;1.23;;;3.80;81.80;;;;;;4977026;28;20072;-74
2023/02/01 07:23:24;;;;;;;3.55;1.38;;;3.80;81.60;;;;;;4976722;28;20039;-74
2023/02/01 07:25:54;;;;;;;2.35;1.10;;;3.80;81.60;;;;;;4976829;28;20077;-75
2023/02/01 07:28:20;;;;;;;4.90;2.13;;;3.80;81.30;;;;;;4976883;28;20557;-75
2023/02/01 07:30:50;;;;;;;2.05;1.65;;;3.80;81.20;;;;;;4977013;28;20061;-75
2023/02/01 07:33:20;;;;;;;4.15;1.75;;;3.80;81.20;;;;;;4976785;28;20019;-77
2023/02/01 07:35:47;;;;;;;4.07;1.70;;;3.80;80.90;;;;;;4976688;28;20065;-75
2023/02/01 07:38:12;;;;;;;3.33;1.83;;;3.80;80.70;;;;;;4976637;28;20078;-76
2023/02/01 07:40:38;;;;;;;4.90;2.05;;;3.90;80.10;;;;;;4976688;28;20507;-75
2023/02/01 07:43:05;;;;;;;3.30;1.42;;;4.00;80.00;;;;;;4976654;28;20025;-75
2023/02/01 07:45:31;;;;;;;1.50;1.25;;;4.00;79.30;;;;;;4976498;28;20076;-75
2023/02/01 07:47:58;;;;;;;2.95;1.50;;;4.00;78.50;;;;;;4960003;28;20078;-76
2023/02/01 07:50:25;;;;;;;2.03;1.30;;;4.00;78.40;;;;;;4960362;28;20443;-74
2023/02/01 07:52:50;;;;;;;2.20;1.40;;;4.00;77.80;;;;;;4993874;28;20022;-75
2023/02/01 07:55:16;;;;;;;2.40;1.20;;;4.00;78.40;;;;;;4976153;28;20045;-75
2023/02/01 07:57:41;;;;;;;4.80;2.63;;;4.00;78.40;;;;;;4976484;28;20025;-75
2023/02/01 08:02:53;;;;;;;2.20;1.52;;;4.20;77.60;;;;;;4993630;28;20049;-74
2023/02/01 08:05:19;;;;;;;3.30;1.25;;;4.20;76.90;;;;;;4959703;28;20482;-75
2023/02/01 08:07:48;;;;;;;2.17;1.30;;;4.20;76.90;;;;;;4975660;28;20037;-74
2023/02/01 08:10:14;;;;;;;3.70;1.30;;;4.20;77.00;;;;;;4976116;28;20397;-74
2023/02/01 08:12:40;;;;;;;3.60;2.17;;;4.20;76.90;;;;;;4975818;28;20037;-75
2023/02/01 08:15:07;;;;;;;4.50;2.05;;;4.30;77.70;;;;;;4975954;28;20027;-75
2023/02/01 08:17:33;;;;;;;4.93;2.50;;;4.20;78.60;;;;;;4975932;28;20064;-75
2023/02/01 08:19:58;;;;;;;5.38;3.08;;;4.20;80.90;;;;;;4959838;28;20068;-75
2023/02/01 08:22:24;;;;;;;5.95;2.70;;;4.10;81.10;;;;;;4975484;28;20062;-75
2023/02/01 08:24:50;;;;;;;9.82;3.78;;;4.00;82.00;;;;;;4975722;28;20022;-75
2023/02/01 08:27:15;;;;;;;5.75;3.22;;;3.90;82.50;;;;;;4959497;28;20039;-75
2023/02/01 08:29:45;;;;;;;5.13;2.72;;;3.90;82.60;;;;;;4975875;28;20080;-76
2023/02/01 08:32:12;;;;;;;12.50;5.68;;;3.90;83.70;;;;;;4976079;28;20123;-75
2023/02/01 08:34:37;;;;;;;11.80;4.55;;;3.90;82.80;;;;;;4975732;28;20022;-75
2023/02/01 08:37:03;;;;;;;5.45;2.70;;;3.80;83.10;;;;;;4975691;28;20057;-76
2023/02/01 08:39:28;;;;;;;8.15;2.50;;;3.70;83.80;;;;;;4975812;28;20030;-75
2023/02/01 08:44:40;;;;;;;3.35;2.20;;;3.50;85.00;;;;;;4962930;28;20116;-73
2023/02/01 08:47:05;;;;;;;5.03;1.98;;;3.50;85.10;;;;;;4975766;28;20046;-74
2023/02/01 08:49:32;;;;;;;2.85;1.63;;;3.60;83.70;;;;;;4993218;28;20077;-74
2023/02/01 08:51:57;;;;;;;5.30;2.05;;;3.70;83.60;;;;;;4975963;28;20022;-73
2023/02/01 08:54:23;;;;;;;5.60;1.67;;;3.70;83.50;;;;;;4975729;28;20491;-74
2023/02/01 08:56:48;;;;;;;3.25;1.65;;;3.80;82.90;;;;;;4975907;28;20088;-73
2023/02/01 08:59:14;;;;;;;2.30;1.48;;;3.90;82.50;;;;;;4959553;28;20062;-74
2023/02/01 09:01:39;;;;;;;4.60;1.40;;;4.10;81.80;;;;;;4975496;28;20030;-73
2023/02/01 09:04:05;;;;;;;4.32;1.52;;;4.10;79.90;;;;;;4975662;28;20018;-76
2023/02/01 09:06:30;;;;;;;5.82;2.10;;;4.30;78.40;;;;;;4975718;28;20038;-75
2023/02/01 09:08:56;;;;;;;13.30;5.30;;;4.30;78.40;;;;;;4967772;28;20085;-76
2023/02/01 09:11:22;;;;;;;9.30;2.53;;;4.40;78.30;;;;;;4959589;28;20026;-76
2023/02/01 09:13:48;;;;;;;4.22;1.50;;;4.40;77.60;;;;;;4975723;28;20038;-73
2023/02/01 09:16:14;;;;;;;3.53;1.45;;;4.40;77.50;;;;;;4975513;28;20029;-75
2023/02/01 09:18:41;;;;;;;5.00;1.48;;;4.40;77.10;;;;;;4975256;28;20023;-75
2023/02/01 09:21:07;;;;;;;9.07;1.67;;;4.30;76.60;;;;;;4975696;28;20030;-75
2023/02/01 09:23:34;;;;;;;5.57;1.67;;;4.20;78.30;;;;;;4959345;28;20033;-75
2023/02/01 09:26:01;;;;;;;7.40;2.20;;;4.30;76.80;;;;;;4975512;28;20046;-75
2023/02/01 09:28:28;;;;;;;8.98;2.30;;;4.40;75.70;;;;;;4959504;28;20051;-75
2023/02/01 09:30:57;;;;;;;6.45;2.38;;;4.40;74.80;;;;;;4976432;28;20026;-75
2023/02/01 09:33:23;;;;;;;9.02;1.95;;;4.50;74.80;;;;;;4983308;28;20022;-75
2023/02/01 09:35:54;;;;;;;6.15;2.17;;;4.40;72.80;;;;;;4979117;28;20562;-75
2023/02/01 09:38:20;;;;;;;11.68;2.00;;;4.60;72.40;;;;;;4978550;28;20133;-75
2023/02/01 09:40:47;;;;;;;8.60;2.03;;;4.60;71.00;;;;;;4978807;28;20129;-75
2023/02/01 09:43:48;;;;;;;12.77;2.42;;;4.70;72.00;;;;;;4978635;28;20435;-75
2023/02/01 09:46:32;;;;;;;5.35;1.90;;;4.70;71.00;;;;;;4973616;28;20050;-75
2023/02/01 09:49:11;;;;;;;7.88;1.70;;;4.90;70.80;;;;;;4955013;28;20030;-75
2023/02/01 09:51:41;;;;;;;10.35;2.33;;;5.00;71.00;;;;;;4978366;28;20035;-75
2023/02/01 09:54:23;;;;;;;10.93;2.30;;;5.00;70.00;;;;;;4978282;28;20289;-75
2023/02/01 09:57:08;;;;;;;9.02;2.00;;;5.10;69.60;;;;;;4978619;28;20467;-74
2023/02/01 09:59:40;;;;;;;7.10;2.38;;;5.10;69.30;;;;;;4995824;28;20049;-76
2023/02/01 10:02:15;;;;;;;10.48;2.45;;;5.20;69.90;;;;;;4978350;28;20077;-74
2023/02/01 10:04:41;;;;;;;;;;;5.10;69.00;;;;;;4978702;28;20150;-74
2023/02/01 10:07:21;;;;;;;;;;;5.00;69.00;;;;;;4978544;28;20412;-74
2023/02/01 10:10:04;;;;;;;10.40;2.65;;;5.00;70.00;;;;;;4978301;28;20322;-74
2023/02/01 10:12:54;;;;;;;12.13;2.92;;;4.90;70.10;;;;;;4978100;28;20464;-74
2023/02/01 10:15:39;;;;;;;11.90;2.90;;;5.00;70.30;;;;;;4978275;28;20062;-75
2023/02/01 10:18:34;;;;;;;11.75;2.92;;;4.80;70.10;;;;;;4978176;28;20062;-74
2023/02/01 10:21:25;;;;;;;11.05;3.10;;;4.80;71.70;;;;;;4977826;28;20110;-75
2023/02/01 10:24:11;;;;;;;16.58;3.30;;;4.70;71.70;;;;;;4995338;28;20022;-73
2023/02/01 10:26:40;;;;;;;11.82;3.30;;;4.70;72.20;;;;;;4977546;28;20053;-75
2023/02/01 10:29:18;;;;;;;7.05;3.03;;;4.60;72.40;;;;;;4977955;28;20026;-74
2023/02/01 10:31:43;;;;;;;15.27;3.03;;;4.70;72.70;;;;;;4977579;28;20026;-75
2023/02/01 10:34:32;;;;;;;8.00;2.72;;;4.70;72.90;;;;;;4961903;28;20052;-77
2023/02/01 10:37:18;;;;;;;11.07;2.95;;;4.60;73.90;;;;;;4977583;28;20046;-75
2023/02/01 10:39:48;;;;;;;13.02;3.33;;;4.70;74.30;;;;;;4995003;28;20471;-75
2023/02/01 10:42:15;;;;;;;6.18;2.50;;;4.70;74.30;;;;;;4977809;28;20038;-75
2023/02/01 10:44:45;;;;;;;10.02;3.40;;;4.70;74.10;;;;;;4976806;28;20022;-75
2023/02/01 10:47:11;;;;;;;10.63;3.28;;;4.70;74.50;;;;;;4977447;28;20030;-75
2023/02/01 10:50:01;;;;;;;10.30;2.95;;;4.80;74.80;;;;;;4977621;28;20330;-75
2023/02/01 10:52:41;;;;;;;13.23;3.08;;;4.90;74.40;;;;;;4977105;28;20030;-76
2023/02/01 10:55:37;;;;;;;8.27;2.95;;;5.00;74.70;;;;;;4977107;28;20026;-75
2023/02/01 10:58:06;;;;;;;10.35;3.10;;;5.00;74.60;;;;;;4994526;28;20514;-75
2023/02/01 11:01:03;;;;;;;5.93;2.95;;;5.00;74.70;;;;;;4976897;28;20026;-75
2023/02/01 11:03:57;;;;;;;6.85;2.30;;;5.00;74.60;;;;;;4977549;28;20478;-75
2023/02/01 11:06:39;;;;;;;9.45;3.05;;;5.00;75.20;;;;;;4977627;28;20034;-75
2023/02/01 11:09:07;;;;;;;7.55;3.03;;;5.00;74.50;;;;;;4977641;28;20022;-73
2023/02/01 11:11:53;;;;;;;5.65;2.38;;;5.00;75.50;;;;;;4977282;28;20089;-78
2023/02/01 11:14:25;;;;;;;8.88;2.30;;;4.90;72.90;;;;;;4976722;28;20164;-79
2023/02/01 11:17:02;;;;;;;7.57;2.50;;;4.60;75.60;;;;;;4977442;28;20410;-80
2023/02/01 11:19:28;;;;;;;7.07;2.33;;;4.30;77.70;;;;;;4977136;28;20466;-81
2023/02/01 11:21:57;;;;;;;9.52;3.00;;;4.20;79.30;;;;;;4990383;28;20034;-74
2023/02/01 11:24:28;;;;;;;6.47;2.10;;;4.40;76.50;;;;;;4978622;28;20542;-75
2023/02/01 11:26:58;;;;;;;6.35;2.45;;;4.60;73.60;;;;;;4977139;28;20069;-80
2023/02/01 11:29:28;;;;;;;10.00;3.08;;;4.90;73.80;;;;;;4977254;28;20515;-76
2023/02/01 11:31:59;;;;;;;9.95;2.80;;;5.40;71.20;;;;;;4976631;28;20093;-79
2023/02/01 11:34:31;;;;;;;8.05;2.40;;;6.00;68.80;;;;;;4976942;28;20026;-78
2023/02/01 11:37:03;;;;;;;7.68;2.13;;;6.50;66.00;;;;;;4976364;28;20100;-79
2023/02/01 11:39:34;;;;;;;6.85;2.45;;;6.60;64.40;;;;;;4993931;28;20467;-77
2023/02/01 11:42:02;;;;;;;11.38;2.88;;;6.10;65.80;;;;;;4976862;28;20053;-78
2023/02/01 11:44:39;;;;;;;7.65;2.17;;;5.70;66.00;;;;;;4993783;28;20046;-78
2023/02/01 11:47:23;;;;;;;6.00;2.70;;;5.30;67.90;;;;;;4976563;28;20450;-78
2023/02/01 11:50:08;;;;;;;7.15;2.30;;;5.10;70.50;;;;;;4976191;28;20034;-79
2023/02/01 11:52:40;;;;;;;3.50;1.50;;;4.90;72.80;;;;;;4976162;28;20078;-80
2023/02/01 11:55:33;;;;;;;8.00;2.58;;;5.00;72.90;;;;;;4976212;28;20110;-82
2023/02/01 11:58:01;;;;;;;10.35;2.00;;;5.30;72.00;;;;;;4976564;28;20475;-79
2023/02/01 12:00:39;;;;;;;3.90;2.08;;;5.50;70.40;;;;;;4976633;28;20046;-80
2023/02/01 12:03:56;;;;;;;7.53;2.53;;;5.60;69.20;;;;;;4976529;28;20058;-81
2023/02/01 12:06:49;;;;;;;7.40;2.42;;;6.10;67.40;;;;;;4917698;29;20043;-76
2023/02/01 12:09:38;;;;;;;10.40;3.10;;;6.10;65.10;;;;;;4914113;29;20571;-77
2023/02/01 12:12:16;;;;;;;6.18;2.45;;;6.00;67.60;;;;;;4917894;29;20063;-76
2023/02/01 12:15:11;;;;;;;7.25;2.78;;;5.80;66.60;;;;;;4917802;29;20035;-76
2023/02/01 12:17:37;;;;;;;6.38;2.47;;;5.70;68.20;;;;;;4917710;29;20067;-75
2023/02/01 12:20:14;;;;;;;8.15;2.50;;;5.50;68.00;;;;;;4917662;29;20070;-77
2023/02/01 12:23:07;;;;;;;10.55;2.88;;;5.30;68.30;;;;;;4917673;29;20024;-75
2023/02/01 12:25:41;;;;;;;10.48;2.67;;;5.30;68.10;;;;;;4917673;29;20158;-77
2023/02/01 12:28:16;;;;;;;11.93;2.65;;;5.40;67.70;;;;;;4918060;29;20047;-78
2023/02/01 12:31:13;;;;;;;7.78;2.45;;;5.40;67.20;;;;;;4917716;29;20051;-76
2023/02/01 12:33:57;;;;;;;6.72;3.25;;;5.30;66.80;;;;;;4917409;29;20054;-77
2023/02/01 12:36:45;;;;;;;11.95;3.05;;;5.20;67.40;;;;;;4931999;28;20042;-75
2023/02/01 12:39:26;;;;;;;10.57;2.60;;;5.30;67.40;;;;;;4976156;28;20037;-76
2023/02/01 12:42:01;;;;;;;12.57;2.70;;;5.20;66.00;;;;;;4976214;28;20026;-77
2023/02/01 12:44:48;;;;;;;8.10;2.47;;;5.10;66.40;;;;;;4976283;28;20026;-77
2023/02/01 12:47:32;;;;;;;11.95;2.88;;;5.10;65.30;;;;;;4976091;28;20038;-76
2023/02/01 12:50:21;;;;;;;9.32;2.80;;;5.30;64.80;;;;;;4975861;28;20463;-75
2023/02/01 12:52:50;;;;;;;12.45;2.70;;;5.40;62.00;;;;;;4975974;28;20423;-76
2023/02/01 12:55:36;;;;;;;13.30;2.30;;;5.50;62.00;;;;;;4959593;28;20030;-76
2023/02/01 12:58:07;;;;;;;12.43;2.70;;;5.40;62.80;;;;;;4975651;28;20049;-78
2023/02/01 13:00:40;;;;;;;8.20;2.17;;;5.30;62.00;;;;;;4976141;28;20069;-77
2023/02/01 13:03:28;;;;;;;9.95;2.00;;;5.20;61.60;;;;;;4975713;28;20113;-74
2023/02/01 13:06:20;;;;;;;7.88;2.30;;;5.20;61.80;;;;;;4993178;28;20097;-75
2023/02/01 13:09:03;;;;;;;8.52;2.33;;;5.10;62.10;;;;;;4979086;28;20026;-76
2023/02/01 13:11:33;;;;;;;16.63;2.67;;;5.10;62.10;;;;;;4979430;28;20034;-75
2023/02/01 13:14:19;;;;;;;19.10;2.92;;;5.00;62.50;;;;;;4971631;28;20023;-75
2023/02/01 13:16:52;;;;;;;15.52;2.72;;;4.90;63.60;;;;;;4979612;28;20105;-74
2023/02/01 13:19:45;;;;;;;11.18;2.63;;;4.90;63.00;;;;;;4979569;28;20435;-76
2023/02/01 13:22:19;;;;;;;8.35;3.17;;;4.80;63.30;;;;;;4979167;28;20483;-73
2023/02/01 13:25:01;;;;;;;10.30;2.90;;;4.90;63.50;;;;;;4979439;28;20483;-75
2023/02/01 13:27:30;;;;;;;13.02;2.63;;;4.90;62.10;;;;;;4979152;28;20050;-74
2023/02/01 13:30:05;;;;;;;11.13;3.15;;;4.90;62.80;;;;;;4979230;28;20027;-74
2023/02/01 13:32:48;;;;;;;12.07;2.90;;;4.90;62.40;;;;;;4979608;28;20096;-75
2023/02/01 13:35:32;;;;;;;13.35;2.90;;;4.80;63.20;;;;;;4979821;28;20046;-74
2023/02/01 13:38:19;;;;;;;13.38;2.90;;;4.80;63.30;;;;;;4978961;28;20050;-76
2023/02/01 13:41:07;;;;;;;15.50;3.88;;;4.90;62.80;;;;;;4995197;28;20026;-76
2023/02/01 13:43:34;;;;;;;7.95;2.40;;;4.90;63.30;;;;;;4979005;28;20026;-74